sensor_id;sensor_type;location;lat;lon;timestamp;temperature;humidity
13854;DHT22;6997;51.782;8.824;2022-08-05T00:02:04;21.90;99.90
13854;DHT22;6997;51.782;8.824;2022-08-05T00:04:30;21.90;99.90
13854;DHT22;6997;51.782;8.824;2022-08-05T00:06:55;21.90;99.90
13854;DHT22;6997;51.782;8.824;2022-08-05T00:09:21;21.80;99.90
13854;DHT22;6997;51.782;8.824;2022-08-05T00:11:48;21.80;99.90
13854;DHT22;6997;51.782;8.824;2022-08-05T00:16:41;21.90;99.90
13854;DHT22;6997;51.782;8.824;2022-08-05T00:19:07;21.80;99.90
13854;DHT22;6997;51.782;8.824;2022-08-05T00:21:33;21.60;99.90
13854;DHT22;6997;51.782;8.824;2022-08-05T00:23:59;21.60;99.90
13854;DHT22;6997;51.782;8.824;2022-08-05T00:26:25;21.60;99.90
13854;DHT22;6997;51.782;8.824;2022-08-05T00:28:51;21.60;99.90
13854;DHT22;6997;51.782;8.824;2022-08-05T00:31:18;21.60;99.90
13854;DHT22;6997;51.782;8.824;2022-08-05T00:33:43;21.70;99.90
13854;DHT22;6997;51.782;8.824;2022-08-05T00:36:10;21.70;99.90
13854;DHT22;6997;51.782;8.824;2022-08-05T00:41:04;21.70;99.90
13854;DHT22;6997;51.782;8.824;2022-08-05T00:43:32;21.80;99.90
13854;DHT22;6997;51.782;8.824;2022-08-05T00:45:58;21.80;99.90
13854;DHT22;6997;51.782;8.824;2022-08-05T00:53:19;21.60;99.90
13854;DHT22;6997;51.782;8.824;2022-08-05T00:55:46;21.70;99.90
13854;DHT22;6997;51.782;8.824;2022-08-05T00:58:13;21.60;99.90
13854;DHT22;6997;51.782;8.824;2022-08-05T01:00:41;21.50;99.90
13854;DHT22;6997;51.782;8.824;2022-08-05T01:03:06;21.50;99.90
13854;DHT22;6997;51.782;8.824;2022-08-05T01:05:32;21.50;99.90
13854;DHT22;6997;51.782;8.824;2022-08-05T01:07:59;21.20;99.90
13854;DHT22;6997;51.782;8.824;2022-08-05T01:10:30;21.20;99.90
13854;DHT22;6997;51.782;8.824;2022-08-05T01:13:11;21.30;99.90
13854;DHT22;6997;51.782;8.824;2022-08-05T01:15:43;21.50;99.90
13854;DHT22;6997;51.782;8.824;2022-08-05T01:18:13;20.90;99.90
13854;DHT22;6997;51.782;8.824;2022-08-05T01:26:29;20.40;99.90
13854;DHT22;6997;51.782;8.824;2022-08-05T01:29:04;20.20;99.90
13854;DHT22;6997;51.782;8.824;2022-08-05T01:31:38;19.80;99.90
13854;DHT22;6997;51.782;8.824;2022-08-05T01:34:12;19.60;99.90
13854;DHT22;6997;51.782;8.824;2022-08-05T01:36:45;19.70;99.90
13854;DHT22;6997;51.782;8.824;2022-08-05T01:39:12;19.60;99.90
13854;DHT22;6997;51.782;8.824;2022-08-05T01:44:07;19.90;99.90
13854;DHT22;6997;51.782;8.824;2022-08-05T01:46:34;19.90;99.90
13854;DHT22;6997;51.782;8.824;2022-08-05T01:49:01;19.90;99.90
13854;DHT22;6997;51.782;8.824;2022-08-05T01:51:30;19.70;99.90
13854;DHT22;6997;51.782;8.824;2022-08-05T01:53:58;19.70;99.90
13854;DHT22;6997;51.782;8.824;2022-08-05T01:56:28;19.70;99.90
13854;DHT22;6997;51.782;8.824;2022-08-05T02:01:22;19.60;99.90
13854;DHT22;6997;51.782;8.824;2022-08-05T02:03:50;19.60;99.90
13854;DHT22;6997;51.782;8.824;2022-08-05T02:06:17;19.50;99.90
13854;DHT22;6997;51.782;8.824;2022-08-05T02:08:43;19.60;99.90
13854;DHT22;6997;51.782;8.824;2022-08-05T02:11:15;19.80;99.90
13854;DHT22;6997;51.782;8.824;2022-08-05T02:19:05;19.60;99.90
13854;DHT22;6997;51.782;8.824;2022-08-05T02:24:05;19.70;99.90
13854;DHT22;6997;51.782;8.824;2022-08-05T02:26:37;19.80;99.90
13854;DHT22;6997;51.782;8.824;2022-08-05T02:29:06;19.60;99.90
13854;DHT22;6997;51.782;8.824;2022-08-05T02:31:34;19.50;99.90
13854;DHT22;6997;51.782;8.824;2022-08-05T02:34:06;19.40;99.90
13854;DHT22;6997;51.782;8.824;2022-08-05T02:36:34;19.30;99.90
13854;DHT22;6997;51.782;8.824;2022-08-05T02:39:04;19.40;99.90
13854;DHT22;6997;51.782;8.824;2022-08-05T02:41:31;19.50;99.90
13854;DHT22;6997;51.782;8.824;2022-08-05T02:43:58;19.50;99.90
13854;DHT22;6997;51.782;8.824;2022-08-05T02:46:25;19.40;99.90
13854;DHT22;6997;51.782;8.824;2022-08-05T02:48:53;19.30;99.90
13854;DHT22;6997;51.782;8.824;2022-08-05T02:51:19;19.20;99.90
13854;DHT22;6997;51.782;8.824;2022-08-05T02:53:46;19.30;99.90
13854;DHT22;6997;51.782;8.824;2022-08-05T03:03:32;19.20;99.90
13854;DHT22;6997;51.782;8.824;2022-08-05T03:06:00;19.20;99.90
13854;DHT22;6997;51.782;8.824;2022-08-05T03:08:27;19.20;99.90
13854;DHT22;6997;51.782;8.824;2022-08-05T03:10:52;19.20;99.90
13854;DHT22;6997;51.782;8.824;2022-08-05T03:13:18;19.20;99.90
13854;DHT22;6997;51.782;8.824;2022-08-05T03:15:45;19.20;99.90
13854;DHT22;6997;51.782;8.824;2022-08-05T03:18:11;19.30;99.90
13854;DHT22;6997;51.782;8.824;2022-08-05T03:25:34;19.20;99.90
13854;DHT22;6997;51.782;8.824;2022-08-05T03:28:01;19.20;99.90
13854;DHT22;6997;51.782;8.824;2022-08-05T03:30:29;19.10;99.90
13854;DHT22;6997;51.782;8.824;2022-08-05T03:32:58;19.00;99.90
13854;DHT22;6997;51.782;8.824;2022-08-05T03:35:24;19.10;99.90
13854;DHT22;6997;51.782;8.824;2022-08-05T03:40:16;18.90;99.90
13854;DHT22;6997;51.782;8.824;2022-08-05T03:45:08;19.10;99.90
13854;DHT22;6997;51.782;8.824;2022-08-05T03:47:33;18.80;99.90
13854;DHT22;6997;51.782;8.824;2022-08-05T03:49:59;18.70;99.90
13854;DHT22;6997;51.782;8.824;2022-08-05T03:52:30;18.60;99.90
13854;DHT22;6997;51.782;8.824;2022-08-05T03:55:01;18.60;99.90
13854;DHT22;6997;51.782;8.824;2022-08-05T04:00:09;18.50;99.90
13854;DHT22;6997;51.782;8.824;2022-08-05T04:02:36;18.50;99.90
13854;DHT22;6997;51.782;8.824;2022-08-05T04:05:05;18.50;99.90
13854;DHT22;6997;51.782;8.824;2022-08-05T04:09:59;18.60;99.90
13854;DHT22;6997;51.782;8.824;2022-08-05T04:12:25;18.70;99.90
13854;DHT22;6997;51.782;8.824;2022-08-05T04:19:44;18.60;99.90
13854;DHT22;6997;51.782;8.824;2022-08-05T04:22:11;18.60;99.90
13854;DHT22;6997;51.782;8.824;2022-08-05T04:24:38;18.60;99.90
13854;DHT22;6997;51.782;8.824;2022-08-05T04:27:03;18.70;99.90
13854;DHT22;6997;51.782;8.824;2022-08-05T04:29:29;18.90;99.90
13854;DHT22;6997;51.782;8.824;2022-08-05T04:31:54;19.00;99.90
13854;DHT22;6997;51.782;8.824;2022-08-05T04:34:20;19.00;99.90
13854;DHT22;6997;51.782;8.824;2022-08-05T04:36:45;19.00;99.90
13854;DHT22;6997;51.782;8.824;2022-08-05T04:41:37;19.10;99.90
13854;DHT22;6997;51.782;8.824;2022-08-05T04:44:02;18.80;99.90
13854;DHT22;6997;51.782;8.824;2022-08-05T04:46:28;18.80;99.90
13854;DHT22;6997;51.782;8.824;2022-08-05T04:48:54;18.70;99.90
13854;DHT22;6997;51.782;8.824;2022-08-05T04:53:45;18.60;99.90
13854;DHT22;6997;51.782;8.824;2022-08-05T04:56:10;18.60;99.90
13854;DHT22;6997;51.782;8.824;2022-08-05T04:58:36;18.50;99.90
13854;DHT22;6997;51.782;8.824;2022-08-05T05:01:02;18.60;99.90
13854;DHT22;6997;51.782;8.824;2022-08-05T05:03:27;18.60;99.90
13854;DHT22;6997;51.782;8.824;2022-08-05T05:05:53;18.60;99.90
13854;DHT22;6997;51.782;8.824;2022-08-05T05:10:45;18.60;99.90
13854;DHT22;6997;51.782;8.824;2022-08-05T05:13:16;18.50;99.90
13854;DHT22;6997;51.782;8.824;2022-08-05T05:15:44;18.50;99.90
13854;DHT22;6997;51.782;8.824;2022-08-05T05:18:13;18.50;99.90
13854;DHT22;6997;51.782;8.824;2022-08-05T05:20:41;18.50;99.90
13854;DHT22;6997;51.782;8.824;2022-08-05T05:23:07;18.40;99.90
13854;DHT22;6997;51.782;8.824;2022-08-05T05:25:32;18.40;99.90
13854;DHT22;6997;51.782;8.824;2022-08-05T05:27:58;18.60;99.90
13854;DHT22;6997;51.782;8.824;2022-08-05T05:30:23;18.50;99.90
13854;DHT22;6997;51.782;8.824;2022-08-05T05:32:49;18.60;99.90
13854;DHT22;6997;51.782;8.824;2022-08-05T05:35:15;18.50;99.90
13854;DHT22;6997;51.782;8.824;2022-08-05T05:37:54;18.70;99.90
13854;DHT22;6997;51.782;8.824;2022-08-05T05:42:48;18.40;99.90
13854;DHT22;6997;51.782;8.824;2022-08-05T05:45:14;18.30;99.90
13854;DHT22;6997;51.782;8.824;2022-08-05T05:47:41;18.10;99.90
13854;DHT22;6997;51.782;8.824;2022-08-05T05:50:10;18.20;99.90
13854;DHT22;6997;51.782;8.824;2022-08-05T05:55:04;18.50;99.90
13854;DHT22;6997;51.782;8.824;2022-08-05T05:59:57;18.40;99.90
13854;DHT22;6997;51.782;8.824;2022-08-05T06:02:22;18.40;99.90
13854;DHT22;6997;51.782;8.824;2022-08-05T06:07:14;18.40;99.90
13854;DHT22;6997;51.782;8.824;2022-08-05T06:09:40;18.50;99.90
13854;DHT22;6997;51.782;8.824;2022-08-05T06:14:32;18.80;99.90
13854;DHT22;6997;51.782;8.824;2022-08-05T06:16:58;18.90;99.90
13854;DHT22;6997;51.782;8.824;2022-08-05T06:19:25;18.70;99.90
13854;DHT22;6997;51.782;8.824;2022-08-05T06:21:51;18.70;99.90
13854;DHT22;6997;51.782;8.824;2022-08-05T06:24:17;18.80;99.90
13854;DHT22;6997;51.782;8.824;2022-08-05T06:26:42;18.80;99.90
13854;DHT22;6997;51.782;8.824;2022-08-05T06:29:08;18.70;99.90
13854;DHT22;6997;51.782;8.824;2022-08-05T06:31:34;18.80;99.90
13854;DHT22;6997;51.782;8.824;2022-08-05T06:36:27;18.90;99.90
13854;DHT22;6997;51.782;8.824;2022-08-05T06:38:52;19.10;99.90
13854;DHT22;6997;51.782;8.824;2022-08-05T06:41:19;19.30;99.90
13854;DHT22;6997;51.782;8.824;2022-08-05T06:43:45;19.40;99.90
13854;DHT22;6997;51.782;8.824;2022-08-05T06:46:11;19.50;99.90
13854;DHT22;6997;51.782;8.824;2022-08-05T06:48:36;19.50;99.90
13854;DHT22;6997;51.782;8.824;2022-08-05T06:51:03;19.40;99.90
13854;DHT22;6997;51.782;8.824;2022-08-05T06:53:28;19.30;99.90
13854;DHT22;6997;51.782;8.824;2022-08-05T06:55:57;19.00;99.90
13854;DHT22;6997;51.782;8.824;2022-08-05T06:58:23;18.90;99.90
13854;DHT22;6997;51.782;8.824;2022-08-05T07:00:49;18.80;99.90
13854;DHT22;6997;51.782;8.824;2022-08-05T07:03:14;18.70;99.90
13854;DHT22;6997;51.782;8.824;2022-08-05T07:08:06;18.50;99.90
13854;DHT22;6997;51.782;8.824;2022-08-05T07:12:58;18.50;99.90
13854;DHT22;6997;51.782;8.824;2022-08-05T07:15:42;18.70;99.90
13854;DHT22;6997;51.782;8.824;2022-08-05T07:18:26;18.70;99.90
13854;DHT22;6997;51.782;8.824;2022-08-05T07:20:52;18.80;99.90
13854;DHT22;6997;51.782;8.824;2022-08-05T07:23:17;18.90;99.90
13854;DHT22;6997;51.782;8.824;2022-08-05T07:25:43;18.90;99.90
13854;DHT22;6997;51.782;8.824;2022-08-05T07:28:08;19.00;99.90
13854;DHT22;6997;51.782;8.824;2022-08-05T07:35:28;19.30;99.90
13854;DHT22;6997;51.782;8.824;2022-08-05T07:37:53;19.30;99.90
13854;DHT22;6997;51.782;8.824;2022-08-05T07:40:19;19.30;99.90
13854;DHT22;6997;51.782;8.824;2022-08-05T07:42:46;19.60;99.90
13854;DHT22;6997;51.782;8.824;2022-08-05T07:45:12;19.80;99.90
13854;DHT22;6997;51.782;8.824;2022-08-05T07:47:37;19.90;99.90
13854;DHT22;6997;51.782;8.824;2022-08-05T07:52:29;19.90;99.90
13854;DHT22;6997;51.782;8.824;2022-08-05T07:54:55;20.10;99.90
13854;DHT22;6997;51.782;8.824;2022-08-05T07:57:20;20.50;99.90
13854;DHT22;6997;51.782;8.824;2022-08-05T07:59:46;20.70;99.90
13854;DHT22;6997;51.782;8.824;2022-08-05T08:02:11;20.80;99.90
13854;DHT22;6997;51.782;8.824;2022-08-05T08:04:37;21.10;99.90
13854;DHT22;6997;51.782;8.824;2022-08-05T08:09:28;21.00;99.90
13854;DHT22;6997;51.782;8.824;2022-08-05T08:11:54;20.90;99.90
13854;DHT22;6997;51.782;8.824;2022-08-05T08:14:19;20.80;99.90
13854;DHT22;6997;51.782;8.824;2022-08-05T08:16:45;20.80;99.90
13854;DHT22;6997;51.782;8.824;2022-08-05T08:21:36;20.60;99.90
13854;DHT22;6997;51.782;8.824;2022-08-05T08:24:02;20.60;99.90
13854;DHT22;6997;51.782;8.824;2022-08-05T08:26:28;20.50;99.90
13854;DHT22;6997;51.782;8.824;2022-08-05T08:28:53;20.60;99.90
13854;DHT22;6997;51.782;8.824;2022-08-05T08:31:19;20.70;99.90
13854;DHT22;6997;51.782;8.824;2022-08-05T08:41:05;20.30;99.90
13854;DHT22;6997;51.782;8.824;2022-08-05T08:43:33;20.30;99.90
13854;DHT22;6997;51.782;8.824;2022-08-05T08:46:02;20.10;99.90
13854;DHT22;6997;51.782;8.824;2022-08-05T08:48:29;20.00;99.90
13854;DHT22;6997;51.782;8.824;2022-08-05T08:50:56;20.00;99.90
13854;DHT22;6997;51.782;8.824;2022-08-05T08:53:23;19.60;99.90
13854;DHT22;6997;51.782;8.824;2022-08-05T08:55:49;19.70;99.90
13854;DHT22;6997;51.782;8.824;2022-08-05T08:58:15;19.70;99.90
13854;DHT22;6997;51.782;8.824;2022-08-05T09:00:41;19.60;99.90
13854;DHT22;6997;51.782;8.824;2022-08-05T09:03:07;19.60;99.90
13854;DHT22;6997;51.782;8.824;2022-08-05T09:05:33;19.50;99.90
13854;DHT22;6997;51.782;8.824;2022-08-05T09:12:51;19.40;99.90
13854;DHT22;6997;51.782;8.824;2022-08-05T09:15:16;19.50;99.90
13854;DHT22;6997;51.782;8.824;2022-08-05T09:17:42;19.30;99.90
13854;DHT22;6997;51.782;8.824;2022-08-05T09:25:23;19.00;99.90
13854;DHT22;6997;51.782;8.824;2022-08-05T09:27:49;19.10;99.90
13854;DHT22;6997;51.782;8.824;2022-08-05T09:35:10;18.30;99.90
13854;DHT22;6997;51.782;8.824;2022-08-05T09:37:37;18.20;99.90
13854;DHT22;6997;51.782;8.824;2022-08-05T09:40:03;18.20;99.90
13854;DHT22;6997;51.782;8.824;2022-08-05T09:47:33;18.00;99.90
13854;DHT22;6997;51.782;8.824;2022-08-05T09:49:59;17.90;99.90
13854;DHT22;6997;51.782;8.824;2022-08-05T09:52:33;17.80;99.90
13854;DHT22;6997;51.782;8.824;2022-08-05T09:57:36;17.60;99.90
13854;DHT22;6997;51.782;8.824;2022-08-05T10:00:10;17.60;99.90
13854;DHT22;6997;51.782;8.824;2022-08-05T10:12:51;17.30;99.90
13854;DHT22;6997;51.782;8.824;2022-08-05T10:20:28;17.20;99.90
13854;DHT22;6997;51.782;8.824;2022-08-05T10:25:20;17.30;99.90
13854;DHT22;6997;51.782;8.824;2022-08-05T10:27:46;17.30;99.90
13854;DHT22;6997;51.782;8.824;2022-08-05T10:30:12;17.20;99.90
13854;DHT22;6997;51.782;8.824;2022-08-05T10:32:38;17.40;99.90
13854;DHT22;6997;51.782;8.824;2022-08-05T10:35:05;17.50;99.90
13854;DHT22;6997;51.782;8.824;2022-08-05T10:37:32;17.50;99.90
13854;DHT22;6997;51.782;8.824;2022-08-05T10:44:55;17.60;99.90
13854;DHT22;6997;51.782;8.824;2022-08-05T10:47:30;17.60;99.90
13854;DHT22;6997;51.782;8.824;2022-08-05T10:50:06;17.60;99.90
13854;DHT22;6997;51.782;8.824;2022-08-05T10:57:30;17.50;99.90
13854;DHT22;6997;51.782;8.824;2022-08-05T11:07:59;17.50;99.90
13854;DHT22;6997;51.782;8.824;2022-08-05T11:10:26;17.60;99.90
13854;DHT22;6997;51.782;8.824;2022-08-05T11:22:59;17.70;99.90
13854;DHT22;6997;51.782;8.824;2022-08-05T11:36:18;17.70;99.90
13854;DHT22;6997;51.782;8.824;2022-08-05T11:41:30;17.40;99.90
13854;DHT22;6997;51.782;8.824;2022-08-05T11:44:05;17.20;99.90
13854;DHT22;6997;51.782;8.824;2022-08-05T11:46:39;16.90;99.90
13854;DHT22;6997;51.782;8.824;2022-08-05T11:49:07;17.00;99.90
13854;DHT22;6997;51.782;8.824;2022-08-05T11:54:05;17.00;99.90
13854;DHT22;6997;51.782;8.824;2022-08-05T11:56:51;17.10;99.90
13854;DHT22;6997;51.782;8.824;2022-08-05T12:02:05;17.60;99.90
13854;DHT22;6997;51.782;8.824;2022-08-05T12:07:10;17.60;99.90
13854;DHT22;6997;51.782;8.824;2022-08-05T12:09:41;17.70;99.90
13854;DHT22;6997;51.782;8.824;2022-08-05T12:17:09;17.70;99.90
13854;DHT22;6997;51.782;8.824;2022-08-05T12:24:43;17.80;99.90
13854;DHT22;6997;51.782;8.824;2022-08-05T12:27:09;17.90;99.90
13854;DHT22;6997;51.782;8.824;2022-08-05T12:32:01;18.00;99.90
13854;DHT22;6997;51.782;8.824;2022-08-05T12:34:34;18.30;99.90
13854;DHT22;6997;51.782;8.824;2022-08-05T12:37:06;18.50;99.90
13854;DHT22;6997;51.782;8.824;2022-08-05T12:42:02;18.90;99.90
13854;DHT22;6997;51.782;8.824;2022-08-05T12:44:28;18.90;99.90
13854;DHT22;6997;51.782;8.824;2022-08-05T12:46:54;18.90;99.90
13854;DHT22;6997;51.782;8.824;2022-08-05T12:49:21;19.00;99.90
13854;DHT22;6997;51.782;8.824;2022-08-05T12:54:29;19.30;99.90
13854;DHT22;6997;51.782;8.824;2022-08-05T13:04:54;19.80;99.90
13854;DHT22;6997;51.782;8.824;2022-08-05T13:07:22;19.60;99.90
13854;DHT22;6997;51.782;8.824;2022-08-05T13:12:17;19.20;99.90
13854;DHT22;6997;51.782;8.824;2022-08-05T13:14:56;19.10;99.90
13854;DHT22;6997;51.782;8.824;2022-08-05T13:17:29;19.00;99.90
13854;DHT22;6997;51.782;8.824;2022-08-05T13:22:27;19.00;99.90
13854;DHT22;6997;51.782;8.824;2022-08-05T13:24:53;19.00;99.90
13854;DHT22;6997;51.782;8.824;2022-08-05T13:32:29;19.70;99.90
13854;DHT22;6997;51.782;8.824;2022-08-05T13:34:55;20.00;99.90
13854;DHT22;6997;51.782;8.824;2022-08-05T13:37:21;20.20;99.90
13854;DHT22;6997;51.782;8.824;2022-08-05T13:44:41;20.40;99.90
13854;DHT22;6997;51.782;8.824;2022-08-05T13:47:08;20.50;99.90
13854;DHT22;6997;51.782;8.824;2022-08-05T13:54:39;20.00;99.90
13854;DHT22;6997;51.782;8.824;2022-08-05T13:57:05;20.00;99.90
13854;DHT22;6997;51.782;8.824;2022-08-05T14:04:24;20.40;99.90
13854;DHT22;6997;51.782;8.824;2022-08-05T14:07:08;20.70;99.90
13854;DHT22;6997;51.782;8.824;2022-08-05T14:09:34;20.80;99.90
13854;DHT22;6997;51.782;8.824;2022-08-05T14:12:00;21.40;99.90
13854;DHT22;6997;51.782;8.824;2022-08-05T14:14:25;21.30;99.90
13854;DHT22;6997;51.782;8.824;2022-08-05T14:16:51;21.30;99.90
13854;DHT22;6997;51.782;8.824;2022-08-05T14:19:17;22.10;99.90
13854;DHT22;6997;51.782;8.824;2022-08-05T14:21:42;22.90;99.90
13854;DHT22;6997;51.782;8.824;2022-08-05T14:24:08;23.30;99.90
13854;DHT22;6997;51.782;8.824;2022-08-05T14:26:37;23.40;99.90
13854;DHT22;6997;51.782;8.824;2022-08-05T14:31:29;21.80;99.90
13854;DHT22;6997;51.782;8.824;2022-08-05T14:33:55;21.30;99.90
13854;DHT22;6997;51.782;8.824;2022-08-05T14:36:21;21.20;99.90
13854;DHT22;6997;51.782;8.824;2022-08-05T14:38:46;21.30;99.90
13854;DHT22;6997;51.782;8.824;2022-08-05T14:41:12;21.30;99.90
13854;DHT22;6997;51.782;8.824;2022-08-05T14:43:38;21.30;99.90
13854;DHT22;6997;51.782;8.824;2022-08-05T14:46:03;21.10;99.90
13854;DHT22;6997;51.782;8.824;2022-08-05T14:48:29;21.10;99.90
13854;DHT22;6997;51.782;8.824;2022-08-05T14:50:55;21.20;99.90
13854;DHT22;6997;51.782;8.824;2022-08-05T14:55:47;21.10;99.90
13854;DHT22;6997;51.782;8.824;2022-08-05T14:58:12;21.00;99.90
13854;DHT22;6997;51.782;8.824;2022-08-05T15:00:39;21.50;99.90
13854;DHT22;6997;51.782;8.824;2022-08-05T15:03:05;21.80;99.90
13854;DHT22;6997;51.782;8.824;2022-08-05T15:05:31;21.60;99.90
13854;DHT22;6997;51.782;8.824;2022-08-05T15:07:57;21.20;99.90
13854;DHT22;6997;51.782;8.824;2022-08-05T15:10:22;21.20;99.90
13854;DHT22;6997;51.782;8.824;2022-08-05T15:12:48;21.70;99.90
13854;DHT22;6997;51.782;8.824;2022-08-05T15:15:14;22.40;99.90
13854;DHT22;6997;51.782;8.824;2022-08-05T15:17:40;22.50;99.90
13854;DHT22;6997;51.782;8.824;2022-08-05T15:22:33;22.80;99.90
13854;DHT22;6997;51.782;8.824;2022-08-05T15:24:59;23.80;99.90
13854;DHT22;6997;51.782;8.824;2022-08-05T15:29:52;23.20;99.90
13854;DHT22;6997;51.782;8.824;2022-08-05T15:34:43;22.50;99.90
13854;DHT22;6997;51.782;8.824;2022-08-05T15:37:09;22.10;99.90
13854;DHT22;6997;51.782;8.824;2022-08-05T15:39:35;22.00;99.90
13854;DHT22;6997;51.782;8.824;2022-08-05T15:42:01;21.60;99.90
13854;DHT22;6997;51.782;8.824;2022-08-05T15:44:27;21.20;99.90
13854;DHT22;6997;51.782;8.824;2022-08-05T15:46:53;21.00;99.90
13854;DHT22;6997;51.782;8.824;2022-08-05T15:49:19;21.00;99.90
13854;DHT22;6997;51.782;8.824;2022-08-05T15:51:45;20.80;99.90
13854;DHT22;6997;51.782;8.824;2022-08-05T15:54:11;20.90;99.90
13854;DHT22;6997;51.782;8.824;2022-08-05T15:56:37;21.00;99.90
13854;DHT22;6997;51.782;8.824;2022-08-05T16:01:29;21.80;99.90
13854;DHT22;6997;51.782;8.824;2022-08-05T16:03:54;22.00;99.90
13854;DHT22;6997;51.782;8.824;2022-08-05T16:06:20;22.30;99.90
13854;DHT22;6997;51.782;8.824;2022-08-05T16:08:48;23.20;99.90
13854;DHT22;6997;51.782;8.824;2022-08-05T16:11:14;22.70;99.90
13854;DHT22;6997;51.782;8.824;2022-08-05T16:18:32;21.50;99.90
13854;DHT22;6997;51.782;8.824;2022-08-05T16:23:26;21.80;99.90
13854;DHT22;6997;51.782;8.824;2022-08-05T16:26:02;21.90;99.90
13854;DHT22;6997;51.782;8.824;2022-08-05T16:28:28;21.90;99.90
13854;DHT22;6997;51.782;8.824;2022-08-05T16:30:54;21.60;99.90
13854;DHT22;6997;51.782;8.824;2022-08-05T16:33:20;21.50;99.90
13854;DHT22;6997;51.782;8.824;2022-08-05T16:35:45;21.70;99.90
13854;DHT22;6997;51.782;8.824;2022-08-05T16:38:11;21.60;99.90
13854;DHT22;6997;51.782;8.824;2022-08-05T16:40:36;21.40;99.90
13854;DHT22;6997;51.782;8.824;2022-08-05T16:43:02;21.30;99.90
13854;DHT22;6997;51.782;8.824;2022-08-05T16:45:28;21.10;99.90
13854;DHT22;6997;51.782;8.824;2022-08-05T16:50:19;21.00;99.90
13854;DHT22;6997;51.782;8.824;2022-08-05T16:52:45;21.00;99.90
13854;DHT22;6997;51.782;8.824;2022-08-05T16:55:10;20.90;99.90
13854;DHT22;6997;51.782;8.824;2022-08-05T16:57:36;21.00;99.90
13854;DHT22;6997;51.782;8.824;2022-08-05T17:00:03;20.90;99.90
13854;DHT22;6997;51.782;8.824;2022-08-05T17:02:30;20.90;99.90
13854;DHT22;6997;51.782;8.824;2022-08-05T17:04:56;20.90;99.90
13854;DHT22;6997;51.782;8.824;2022-08-05T17:07:22;20.80;99.90
13854;DHT22;6997;51.782;8.824;2022-08-05T17:09:48;20.80;99.90
13854;DHT22;6997;51.782;8.824;2022-08-05T17:14:43;20.60;99.90
13854;DHT22;6997;51.782;8.824;2022-08-05T17:22:02;20.60;99.90
13854;DHT22;6997;51.782;8.824;2022-08-05T17:24:28;20.60;99.90
13854;DHT22;6997;51.782;8.824;2022-08-05T17:26:53;20.70;99.90
13854;DHT22;6997;51.782;8.824;2022-08-05T17:29:19;20.80;99.90
13854;DHT22;6997;51.782;8.824;2022-08-05T17:31:44;20.90;99.90
13854;DHT22;6997;51.782;8.824;2022-08-05T17:34:10;21.00;99.90
13854;DHT22;6997;51.782;8.824;2022-08-05T17:36:35;20.90;99.90
13854;DHT22;6997;51.782;8.824;2022-08-05T17:41:27;20.80;99.90
13854;DHT22;6997;51.782;8.824;2022-08-05T17:43:53;20.90;99.90
13854;DHT22;6997;51.782;8.824;2022-08-05T17:53:41;20.60;99.90
13854;DHT22;6997;51.782;8.824;2022-08-05T17:56:06;20.40;99.90
13854;DHT22;6997;51.782;8.824;2022-08-05T18:01:01;20.10;99.90
13854;DHT22;6997;51.782;8.824;2022-08-05T18:05:54;20.00;99.90
13854;DHT22;6997;51.782;8.824;2022-08-05T18:10:45;19.90;99.90
13854;DHT22;6997;51.782;8.824;2022-08-05T18:13:12;19.90;99.90
13854;DHT22;6997;51.782;8.824;2022-08-05T18:15:38;19.80;99.90
13854;DHT22;6997;51.782;8.824;2022-08-05T18:18:03;19.90;99.90
13854;DHT22;6997;51.782;8.824;2022-08-05T18:20:29;19.80;99.90
13854;DHT22;6997;51.782;8.824;2022-08-05T18:22:55;19.70;99.90
13854;DHT22;6997;51.782;8.824;2022-08-05T18:25:21;19.70;99.90
13854;DHT22;6997;51.782;8.824;2022-08-05T18:27:46;19.70;99.90
13854;DHT22;6997;51.782;8.824;2022-08-05T18:30:12;19.60;99.90
13854;DHT22;6997;51.782;8.824;2022-08-05T18:32:38;19.70;99.90
13854;DHT22;6997;51.782;8.824;2022-08-05T18:37:56;19.40;99.90
13854;DHT22;6997;51.782;8.824;2022-08-05T18:40:22;19.30;99.90
13854;DHT22;6997;51.782;8.824;2022-08-05T18:47:43;19.00;99.90
13854;DHT22;6997;51.782;8.824;2022-08-05T19:08:08;18.40;99.90
13854;DHT22;6997;51.782;8.824;2022-08-05T19:10:35;18.30;99.90
13854;DHT22;6997;51.782;8.824;2022-08-05T19:13:03;18.30;99.90
13854;DHT22;6997;51.782;8.824;2022-08-05T19:15:29;18.30;99.90
13854;DHT22;6997;51.782;8.824;2022-08-05T19:17:56;18.30;99.90
13854;DHT22;6997;51.782;8.824;2022-08-05T19:20:24;18.20;99.90
13854;DHT22;6997;51.782;8.824;2022-08-05T19:22:50;18.20;99.90
13854;DHT22;6997;51.782;8.824;2022-08-05T19:25:18;18.10;99.90
13854;DHT22;6997;51.782;8.824;2022-08-05T19:30:11;17.90;99.90
13854;DHT22;6997;51.782;8.824;2022-08-05T19:32:39;17.90;99.90
13854;DHT22;6997;51.782;8.824;2022-08-05T19:37:32;17.90;99.90
13854;DHT22;6997;51.782;8.824;2022-08-05T19:49:47;17.50;99.90
13854;DHT22;6997;51.782;8.824;2022-08-05T19:52:14;17.50;99.90
13854;DHT22;6997;51.782;8.824;2022-08-05T19:54:41;17.50;99.90
13854;DHT22;6997;51.782;8.824;2022-08-05T19:57:07;17.40;99.90
13854;DHT22;6997;51.782;8.824;2022-08-05T19:59:34;17.40;99.90
13854;DHT22;6997;51.782;8.824;2022-08-05T20:02:00;17.30;99.90
13854;DHT22;6997;51.782;8.824;2022-08-05T20:04:27;17.40;99.90
13854;DHT22;6997;51.782;8.824;2022-08-05T20:06:54;17.40;99.90
13854;DHT22;6997;51.782;8.824;2022-08-05T20:14:15;17.40;99.90
13854;DHT22;6997;51.782;8.824;2022-08-05T20:16:42;17.40;99.90
13854;DHT22;6997;51.782;8.824;2022-08-05T20:21:35;17.20;99.90
13854;DHT22;6997;51.782;8.824;2022-08-05T20:24:02;17.10;99.90
13854;DHT22;6997;51.782;8.824;2022-08-05T20:26:28;16.90;99.90
13854;DHT22;6997;51.782;8.824;2022-08-05T20:28:56;17.00;99.90
13854;DHT22;6997;51.782;8.824;2022-08-05T20:31:25;17.00;99.90
13854;DHT22;6997;51.782;8.824;2022-08-05T20:38:47;16.80;99.90
13854;DHT22;6997;51.782;8.824;2022-08-05T20:41:14;16.80;99.90
13854;DHT22;6997;51.782;8.824;2022-08-05T20:43:40;16.80;99.90
13854;DHT22;6997;51.782;8.824;2022-08-05T20:46:06;16.70;99.90
13854;DHT22;6997;51.782;8.824;2022-08-05T20:51:01;16.50;99.90
13854;DHT22;6997;51.782;8.824;2022-08-05T20:55:55;16.40;99.90
13854;DHT22;6997;51.782;8.824;2022-08-05T20:58:22;16.40;99.90
13854;DHT22;6997;51.782;8.824;2022-08-05T21:05:43;16.10;99.90
13854;DHT22;6997;51.782;8.824;2022-08-05T21:10:35;16.10;99.90
13854;DHT22;6997;51.782;8.824;2022-08-05T21:13:02;16.10;99.90
13854;DHT22;6997;51.782;8.824;2022-08-05T21:15:29;16.10;99.90
13854;DHT22;6997;51.782;8.824;2022-08-05T21:17:55;16.00;99.90
13854;DHT22;6997;51.782;8.824;2022-08-05T21:20:21;15.70;99.90
13854;DHT22;6997;51.782;8.824;2022-08-05T21:22:47;15.70;99.90
13854;DHT22;6997;51.782;8.824;2022-08-05T21:30:05;15.70;99.90
13854;DHT22;6997;51.782;8.824;2022-08-05T21:32:31;15.50;99.90
13854;DHT22;6997;51.782;8.824;2022-08-05T21:34:57;15.60;99.90
13854;DHT22;6997;51.782;8.824;2022-08-05T21:37:24;15.40;99.90
13854;DHT22;6997;51.782;8.824;2022-08-05T21:39:50;15.40;99.90
13854;DHT22;6997;51.782;8.824;2022-08-05T21:42:16;15.40;99.90
13854;DHT22;6997;51.782;8.824;2022-08-05T21:44:45;15.40;99.90